Time,TemperatureF,DewpointF,PressureIn,WindDirection,WindDirectionDegrees,WindSpeedMPH,WindSpeedGustMPH,Humidity,HourlyPrecipIn,Conditions,Clouds,dailyrainin,SoftwareType,DateUTC
2013-02-25 00:13:00,22.6,20.0,30.15,SW,232,0.0,0.0,88,0.00,,,0.00,weatherlink.com 1.10,2013-02-25 05:13:00,
2013-02-25 00:28:00,22.2,20.0,30.15,SW,232,0.0,0.0,89,0.00,,,0.00,weatherlink.com 1.10,2013-02-25 05:28:00,
2013-02-25 00:43:00,21.3,19.0,30.16,SW,232,0.0,0.0,90,0.00,,,0.00,weatherlink.com 1.10,2013-02-25 05:43:00,
2013-02-25 00:58:00,21.1,19.0,30.16,SW,232,0.0,0.0,91,0.00,,,0.00,weatherlink.com 1.10,2013-02-25 05:58:00,
2013-02-25 01:13:00,20.8,19.0,30.17,SW,231,0.0,0.0,92,0.00,,,0.00,weatherlink.com 1.10,2013-02-25 06:13:00,
2013-02-25 01:28:00,20.9,19.0,30.17,SW,232,0.0,0.0,92,0.00,,,0.00,weatherlink.com 1.10,2013-02-25 06:28:00,
2013-02-25 01:43:00,21.5,20.0,30.17,SW,231,0.0,0.0,92,0.00,,,0.00,weatherlink.com 1.10,2013-02-25 06:43:00,
2013-02-25 01:58:00,22.4,21.0,30.17,SW,232,0.0,0.0,92,0.00,,,0.00,weatherlink.com 1.10,2013-02-25 06:58:00,
2013-02-25 02:13:00,23.0,21.0,30.18,NW,304,0.0,0.0,91,0.00,,,0.00,weatherlink.com 1.10,2013-02-25 07:13:00,
2013-02-25 02:28:00,23.0,21.0,30.18,WNW,303,0.0,0.0,90,0.00,,,0.00,weatherlink.com 1.10,2013-02-25 07:28:00,
2013-02-25 02:43:00,23.4,21.0,30.18,NW,304,0.0,0.0,91,0.00,,,0.00,weatherlink.com 1.10,2013-02-25 07:43:00,
2013-02-25 02:58:00,23.9,22.0,30.18,WSW,250,0.0,3.0,91,0.00,,,0.00,weatherlink.com 1.10,2013-02-25 07:58:00,
2013-02-25 03:14:00,24.4,22.0,30.17,WNW,285,0.0,1.0,90,0.00,,,0.00,weatherlink.com 1.10,2013-02-25 08:14:00,
2013-02-25 03:29:00,25.0,22.0,30.17,NNE,25,0.0,1.0,89,0.00,,,0.00,weatherlink.com 1.10,2013-02-25 08:29:00,
2013-02-25 03:44:00,24.9,22.0,30.17,NNE,25,0.0,0.0,89,0.00,,,0.00,weatherlink.com 1.10,2013-02-25 08:44:00,
2013-02-25 03:59:00,24.6,22.0,30.17,NNE,25,0.0,0.0,90,0.00,,,0.00,weatherlink.com 1.10,2013-02-25 08:59:00,
2013-02-25 04:14:00,24.5,22.0,30.16,NNE,25,0.0,0.0,91,0.00,,,0.00,weatherlink.com 1.10,2013-02-25 09:14:00,
2013-02-25 04:29:00,24.6,22.0,30.16,NNE,25,0.0,0.0,91,0.00,,,0.00,weatherlink.com 1.10,2013-02-25 09:29:00,
2013-02-25 04:44:00,24.7,23.0,30.17,NNE,25,0.0,0.0,91,0.00,,,0.00,weatherlink.com 1.10,2013-02-25 09:44:00,
2013-02-25 04:59:00,25.0,23.0,30.17,NNE,25,0.0,0.0,92,0.00,,,0.00,weatherlink.com 1.10,2013-02-25 09:59:00,
2013-02-25 05:14:00,25.3,23.0,30.17,NNE,26,0.0,0.0,92,0.00,,,0.00,weatherlink.com 1.10,2013-02-25 10:14:00,
2013-02-25 05:29:00,25.4,23.0,30.18,NNE,25,0.0,0.0,91,0.00,,,0.00,weatherlink.com 1.10,2013-02-25 10:29:00,
2013-02-25 05:44:00,25.4,23.0,30.18,NNE,25,0.0,0.0,91,0.00,,,0.00,weatherlink.com 1.10,2013-02-25 10:44:00,
2013-02-25 05:59:00,25.2,23.0,30.18,NNE,25,0.0,0.0,91,0.00,,,0.00,weatherlink.com 1.10,2013-02-25 10:59:00,
2013-02-25 06:14:00,25.1,23.0,30.18,NNE,25,0.0,0.0,91,0.00,,,0.00,weatherlink.com 1.10,2013-02-25 11:14:00,
2013-02-25 06:29:00,24.7,23.0,30.19,NNE,26,0.0,0.0,92,0.00,,,0.00,weatherlink.com 1.10,2013-02-25 11:29:00,
2013-02-25 06:44:00,24.7,23.0,30.19,West,266,1.0,1.0,92,0.00,,,0.00,weatherlink.com 1.10,2013-02-25 11:44:00,
2013-02-25 06:59:00,24.8,23.0,30.20,West,266,0.0,0.0,92,0.00,,,0.00,weatherlink.com 1.10,2013-02-25 11:59:00,
2013-02-25 07:14:00,25.2,23.0,30.21,West,266,0.0,0.0,92,0.00,,,0.00,weatherlink.com 1.10,2013-02-25 12:14:00,
2013-02-25 07:29:00,25.6,24.0,30.21,West,266,0.0,1.0,92,0.00,,,0.00,weatherlink.com 1.10,2013-02-25 12:29:00,
2013-02-25 07:44:00,26.2,24.0,30.21,SSE,150,0.0,1.0,91,0.00,,,0.00,weatherlink.com 1.10,2013-02-25 12:44:00,
2013-02-25 07:59:00,26.7,25.0,30.21,SSE,150,0.0,0.0,91,0.00,,,0.00,weatherlink.com 1.10,2013-02-25 12:59:00,
2013-02-25 08:14:00,27.2,25.0,30.22,SSE,150,0.0,0.0,91,0.00,,,0.00,weatherlink.com 1.10,2013-02-25 13:14:00,
2013-02-25 08:29:00,27.8,25.0,30.23,SSE,151,0.0,1.0,90,0.00,,,0.00,weatherlink.com 1.10,2013-02-25 13:29:00,
2013-02-25 08:44:00,28.6,26.0,30.23,WSW,248,0.0,1.0,89,0.00,,,0.00,weatherlink.com 1.10,2013-02-25 13:44:00,
2013-02-25 08:59:00,29.2,26.0,30.24,SSW,201,1.0,2.0,88,0.00,,,0.00,weatherlink.com 1.10,2013-02-25 13:59:00,
2013-02-25 09:14:00,29.7,27.0,30.24,WSW,255,2.0,2.0,88,0.00,,,0.00,weatherlink.com 1.10,2013-02-25 14:14:00,
2013-02-25 09:29:00,30.8,27.0,30.23,SE,146,1.0,1.0,86,0.00,,,0.00,weatherlink.com 1.10,2013-02-25 14:29:00,
2013-02-25 09:44:00,32.0,28.0,30.23,SSE,151,0.0,1.0,84,0.00,,,0.00,weatherlink.com 1.10,2013-02-25 14:44:00,
2013-02-25 09:59:00,33.3,28.0,30.23,SE,146,0.0,1.0,80,0.00,,,0.00,weatherlink.com 1.10,2013-02-25 14:59:00,
2013-02-25 10:14:00,33.6,27.0,30.22,East,80,0.0,1.0,77,0.00,,,0.00,weatherlink.com 1.10,2013-02-25 15:14:00,
2013-02-25 10:29:00,33.9,26.0,30.21,East,96,1.0,3.0,74,0.00,,,0.00,weatherlink.com 1.10,2013-02-25 15:29:00,
2013-02-25 10:45:00,34.9,25.0,30.21,East,100,2.0,2.0,68,0.00,,,0.00,weatherlink.com 1.10,2013-02-25 15:45:00,
2013-02-25 11:15:00,36.5,25.0,30.21,SSE,159,0.0,4.0,63,0.00,,,0.00,weatherlink.com 1.10,2013-02-25 16:15:00,
2013-02-25 11:30:00,35.6,25.0,30.21,West,260,1.0,5.0,65,0.00,,,0.00,weatherlink.com 1.10,2013-02-25 16:30:00,
2013-02-25 11:45:00,35.4,23.0,30.21,SW,219,3.0,4.0,62,0.00,,,0.00,weatherlink.com 1.10,2013-02-25 16:45:00,
2013-02-25 12:00:00,35.7,24.0,30.22,SW,231,2.0,6.0,62,0.00,,,0.00,weatherlink.com 1.10,2013-02-25 17:00:00,
2013-02-25 12:15:00,36.4,25.0,30.22,SE,138,5.0,7.0,63,0.00,,,0.00,weatherlink.com 1.10,2013-02-25 17:15:00,
2013-02-25 12:30:00,36.8,24.0,30.22,West,271,4.0,6.0,61,0.00,,,0.00,weatherlink.com 1.10,2013-02-25 17:30:00,
2013-02-25 12:45:00,37.6,25.0,30.21,East,93,3.0,6.0,60,0.00,,,0.00,weatherlink.com 1.10,2013-02-25 17:45:00,
2013-02-25 13:00:00,37.1,24.0,30.21,NNE,29,0.0,5.0,60,0.00,,,0.00,weatherlink.com 1.10,2013-02-25 18:00:00,
2013-02-25 13:15:00,37.8,24.0,30.20,East,84,1.0,7.0,58,0.00,,,0.00,weatherlink.com 1.10,2013-02-25 18:15:00,
2013-02-25 13:30:00,37.0,25.0,30.19,NNE,30,2.0,6.0,62,0.00,,,0.00,weatherlink.com 1.10,2013-02-25 18:30:00,
2013-02-25 14:00:00,37.1,25.0,30.18,West,274,0.0,3.0,62,0.00,,,0.00,weatherlink.com 1.10,2013-02-25 19:00:00,
2013-02-25 14:15:00,37.9,25.0,30.17,North,352,2.0,6.0,60,0.00,,,0.00,weatherlink.com 1.10,2013-02-25 19:15:00,
2013-02-25 14:30:00,39.3,27.0,30.16,West,276,2.0,6.0,61,0.00,,,0.00,weatherlink.com 1.10,2013-02-25 19:30:00,
2013-02-25 14:45:00,39.6,26.0,30.16,West,264,0.0,6.0,58,0.00,,,0.00,weatherlink.com 1.10,2013-02-25 19:45:00,
2013-02-25 15:00:00,39.8,26.0,30.16,South,169,2.0,5.0,58,0.00,,,0.00,weatherlink.com 1.10,2013-02-25 20:00:00,
2013-02-25 15:15:00,40.7,26.0,30.16,SE,129,0.0,5.0,57,0.00,,,0.00,weatherlink.com 1.10,2013-02-25 20:15:00,
2013-02-25 15:30:00,41.3,26.0,30.16,South,169,1.0,2.0,55,0.00,,,0.00,weatherlink.com 1.10,2013-02-25 20:30:00,
2013-02-25 15:45:00,41.3,26.0,30.16,WSW,258,1.0,2.0,54,0.00,,,0.00,weatherlink.com 1.10,2013-02-25 20:45:00,
2013-02-25 16:00:00,41.0,25.0,30.16,NNW,332,1.0,6.0,54,0.00,,,0.00,weatherlink.com 1.10,2013-02-25 21:00:00,
2013-02-25 16:15:00,41.3,26.0,30.16,SW,222,1.0,5.0,54,0.00,,,0.00,weatherlink.com 1.10,2013-02-25 21:15:00,
2013-02-25 16:30:00,41.9,26.0,30.16,East,94,0.0,2.0,53,0.00,,,0.00,weatherlink.com 1.10,2013-02-25 21:30:00,
2013-02-25 16:45:00,41.2,26.0,30.16,ESE,110,0.0,3.0,56,0.00,,,0.00,weatherlink.com 1.10,2013-02-25 21:45:00,
2013-02-25 17:15:00,41.4,26.0,30.14,NE,37,1.0,2.0,54,0.00,,,0.00,weatherlink.com 1.10,2013-02-25 22:15:00,
2013-02-25 17:30:00,40.1,25.0,30.13,NNE,26,0.0,4.0,56,0.00,,,0.00,weatherlink.com 1.10,2013-02-25 22:30:00,
2013-02-25 17:45:00,39.3,26.0,30.14,NNW,336,0.0,4.0,59,0.00,,,0.00,weatherlink.com 1.10,2013-02-25 22:45:00,
2013-02-25 18:00:00,38.4,25.0,30.14,NNE,23,0.0,1.0,59,0.00,,,0.00,weatherlink.com 1.10,2013-02-25 23:00:00,
2013-02-25 18:15:00,36.5,25.0,30.14,NNE,27,0.0,0.0,63,0.00,,,0.00,weatherlink.com 1.10,2013-02-25 23:15:00,
2013-02-25 18:30:00,34.7,25.0,30.14,NNE,27,0.0,1.0,67,0.00,,,0.00,weatherlink.com 1.10,2013-02-25 23:30:00,
2013-02-25 18:45:00,33.1,24.0,30.15,NNE,27,0.0,0.0,69,0.00,,,0.00,weatherlink.com 1.10,2013-02-25 23:45:00,
2013-02-25 19:00:00,32.5,24.0,30.15,NNE,26,0.0,0.0,70,0.00,,,0.00,weatherlink.com 1.10,2013-02-26 00:00:00,
2013-02-25 19:15:00,30.8,23.0,30.15,NNE,26,0.0,0.0,73,0.00,,,0.00,weatherlink.com 1.10,2013-02-26 00:15:00,
2013-02-25 19:30:00,30.3,23.0,30.16,NNE,25,0.0,0.0,75,0.00,,,0.00,weatherlink.com 1.10,2013-02-26 00:30:00,
2013-02-25 19:45:00,28.6,23.0,30.16,NNE,26,0.0,0.0,78,0.00,,,0.00,weatherlink.com 1.10,2013-02-26 00:45:00,
2013-02-25 20:00:00,28.5,23.0,30.16,NNE,26,0.0,0.0,81,0.00,,,0.00,weatherlink.com 1.10,2013-02-26 01:00:00,
2013-02-25 20:15:00,28.9,23.0,30.16,ENE,58,0.0,1.0,79,0.00,,,0.00,weatherlink.com 1.10,2013-02-26 01:15:00,
2013-02-25 20:30:00,28.9,23.0,30.16,ESE,112,0.0,0.0,79,0.00,,,0.00,weatherlink.com 1.10,2013-02-26 01:30:00,
2013-02-25 20:45:00,28.7,23.0,30.15,ENE,62,1.0,1.0,80,0.00,,,0.00,weatherlink.com 1.10,2013-02-26 01:45:00,
2013-02-25 21:00:00,28.4,23.0,30.14,ENE,63,0.0,1.0,80,0.00,,,0.00,weatherlink.com 1.10,2013-02-26 02:00:00,
2013-02-25 21:15:00,27.7,23.0,30.14,ENE,63,0.0,0.0,81,0.00,,,0.00,weatherlink.com 1.10,2013-02-26 02:15:00,
2013-02-25 21:30:00,27.6,23.0,30.13,ESE,123,0.0,1.0,83,0.00,,,0.00,weatherlink.com 1.10,2013-02-26 02:30:00,
2013-02-25 21:45:00,27.7,23.0,30.13,East,80,0.0,0.0,82,0.00,,,0.00,weatherlink.com 1.10,2013-02-26 02:45:00,
2013-02-25 22:00:00,27.5,23.0,30.11,NNE,32,1.0,2.0,83,0.00,,,0.00,weatherlink.com 1.10,2013-02-26 03:00:00,
2013-02-25 22:15:00,27.8,23.0,30.12,SE,131,0.0,3.0,82,0.00,,,0.00,weatherlink.com 1.10,2013-02-26 03:15:00,
2013-02-25 22:30:00,28.1,23.0,30.13,East,92,0.0,1.0,81,0.00,,,0.00,weatherlink.com 1.10,2013-02-26 03:30:00,
2013-02-25 22:45:00,26.8,22.0,30.14,East,91,0.0,0.0,83,0.00,,,0.00,weatherlink.com 1.10,2013-02-26 03:45:00,
2013-02-25 23:00:00,26.2,22.0,30.13,East,91,0.0,0.0,85,0.00,,,0.00,weatherlink.com 1.10,2013-02-26 04:00:00,
2013-02-25 23:15:00,26.2,23.0,30.14,East,91,0.0,0.0,86,0.00,,,0.00,weatherlink.com 1.10,2013-02-26 04:15:00,
2013-02-25 23:30:00,26.3,22.0,30.14,East,91,0.0,1.0,85,0.00,,,0.00,weatherlink.com 1.10,2013-02-26 04:30:00,
2013-02-25 23:45:00,26.4,23.0,30.14,ENE,70,0.0,1.0,86,0.00,,,0.00,weatherlink.com 1.10,2013-02-26 04:45:00,